sensor_id;sensor_type;location;lat;lon;timestamp;P1;durP1;ratioP1;P2;durP2;ratioP2
40907;SDS011;51055;59.436;24.778;2022-11-15T00:01:14;6.88;;;3.67;;
40907;SDS011;51055;59.436;24.778;2022-11-15T00:03:44;8.32;;;3.80;;
40907;SDS011;51055;59.436;24.778;2022-11-15T00:06:12;5.75;;;3.03;;
40907;SDS011;51055;59.436;24.778;2022-11-15T00:08:39;9.20;;;3.83;;
40907;SDS011;51055;59.436;24.778;2022-11-15T00:11:08;7.00;;;3.90;;
40907;SDS011;51055;59.436;24.778;2022-11-15T00:13:38;8.50;;;5.32;;
40907;SDS011;51055;59.436;24.778;2022-11-15T00:16:06;9.48;;;4.20;;
40907;SDS011;51055;59.436;24.778;2022-11-15T00:18:34;9.98;;;4.03;;
40907;SDS011;51055;59.436;24.778;2022-11-15T00:21:05;8.15;;;4.40;;
40907;SDS011;51055;59.436;24.778;2022-11-15T00:23:35;9.90;;;4.30;;
40907;SDS011;51055;59.436;24.778;2022-11-15T00:26:03;7.10;;;4.00;;
40907;SDS011;51055;59.436;24.778;2022-11-15T00:28:30;9.68;;;4.28;;
40907;SDS011;51055;59.436;24.778;2022-11-15T00:31:05;10.07;;;4.15;;
40907;SDS011;51055;59.436;24.778;2022-11-15T00:33:36;10.20;;;3.88;;
40907;SDS011;51055;59.436;24.778;2022-11-15T00:36:04;9.05;;;3.75;;
40907;SDS011;51055;59.436;24.778;2022-11-15T00:38:35;6.78;;;3.75;;
40907;SDS011;51055;59.436;24.778;2022-11-15T00:41:05;7.20;;;3.65;;
40907;SDS011;51055;59.436;24.778;2022-11-15T00:43:36;7.88;;;3.97;;
40907;SDS011;51055;59.436;24.778;2022-11-15T00:46:04;8.60;;;4.10;;
40907;SDS011;51055;59.436;24.778;2022-11-15T00:48:33;7.50;;;3.95;;
40907;SDS011;51055;59.436;24.778;2022-11-15T00:51:00;7.10;;;3.60;;
40907;SDS011;51055;59.436;24.778;2022-11-15T00:53:28;7.95;;;4.60;;
40907;SDS011;51055;59.436;24.778;2022-11-15T00:55:56;6.27;;;4.03;;
40907;SDS011;51055;59.436;24.778;2022-11-15T00:58:24;7.30;;;3.83;;
40907;SDS011;51055;59.436;24.778;2022-11-15T01:00:51;6.72;;;3.33;;
40907;SDS011;51055;59.436;24.778;2022-11-15T01:03:19;5.47;;;2.92;;
40907;SDS011;51055;59.436;24.778;2022-11-15T01:05:47;6.85;;;3.45;;
40907;SDS011;51055;59.436;24.778;2022-11-15T01:08:15;6.35;;;3.38;;
40907;SDS011;51055;59.436;24.778;2022-11-15T01:10:43;6.22;;;3.10;;
40907;SDS011;51055;59.436;24.778;2022-11-15T01:13:11;6.45;;;3.03;;
40907;SDS011;51055;59.436;24.778;2022-11-15T01:15:39;6.45;;;3.30;;
40907;SDS011;51055;59.436;24.778;2022-11-15T01:18:07;5.07;;;2.80;;
40907;SDS011;51055;59.436;24.778;2022-11-15T01:20:41;7.68;;;3.42;;
40907;SDS011;51055;59.436;24.778;2022-11-15T01:23:10;6.82;;;3.25;;
40907;SDS011;51055;59.436;24.778;2022-11-15T01:25:37;5.72;;;3.33;;
40907;SDS011;51055;59.436;24.778;2022-11-15T01:28:05;7.93;;;3.60;;
40907;SDS011;51055;59.436;24.778;2022-11-15T01:30:33;6.25;;;3.25;;
40907;SDS011;51055;59.436;24.778;2022-11-15T01:33:02;6.78;;;3.60;;
40907;SDS011;51055;59.436;24.778;2022-11-15T01:35:30;5.75;;;3.08;;
40907;SDS011;51055;59.436;24.778;2022-11-15T01:37:58;6.57;;;2.90;;
40907;SDS011;51055;59.436;24.778;2022-11-15T01:40:26;5.30;;;3.13;;
40907;SDS011;51055;59.436;24.778;2022-11-15T01:42:53;6.25;;;2.70;;
40907;SDS011;51055;59.436;24.778;2022-11-15T01:45:21;6.20;;;3.58;;
40907;SDS011;51055;59.436;24.778;2022-11-15T01:47:56;8.50;;;3.70;;
40907;SDS011;51055;59.436;24.778;2022-11-15T01:50:25;5.80;;;2.80;;
40907;SDS011;51055;59.436;24.778;2022-11-15T01:52:56;6.47;;;3.17;;
40907;SDS011;51055;59.436;24.778;2022-11-15T01:55:25;5.80;;;2.67;;
40907;SDS011;51055;59.436;24.778;2022-11-15T01:57:55;7.28;;;3.30;;
40907;SDS011;51055;59.436;24.778;2022-11-15T02:00:27;5.60;;;3.15;;
40907;SDS011;51055;59.436;24.778;2022-11-15T02:02:56;6.18;;;3.08;;
40907;SDS011;51055;59.436;24.778;2022-11-15T02:05:24;7.63;;;3.20;;
40907;SDS011;51055;59.436;24.778;2022-11-15T02:07:53;3.90;;;2.28;;
40907;SDS011;51055;59.436;24.778;2022-11-15T02:10:22;6.70;;;3.20;;
40907;SDS011;51055;59.436;24.778;2022-11-15T02:12:51;6.65;;;3.25;;
40907;SDS011;51055;59.436;24.778;2022-11-15T02:15:20;7.40;;;3.15;;
40907;SDS011;51055;59.436;24.778;2022-11-15T02:20:58;4.57;;;2.35;;
40907;SDS011;51055;59.436;24.778;2022-11-15T02:29:32;5.88;;;2.53;;
40907;SDS011;51055;59.436;24.778;2022-11-15T02:32:23;5.38;;;2.60;;
40907;SDS011;51055;59.436;24.778;2022-11-15T02:35:06;4.53;;;2.30;;
40907;SDS011;51055;59.436;24.778;2022-11-15T02:37:56;5.25;;;2.20;;
40907;SDS011;51055;59.436;24.778;2022-11-15T02:43:06;4.75;;;2.28;;
40907;SDS011;51055;59.436;24.778;2022-11-15T02:46:05;3.33;;;1.75;;
40907;SDS011;51055;59.436;24.778;2022-11-15T02:48:37;3.80;;;1.80;;
40907;SDS011;51055;59.436;24.778;2022-11-15T02:51:05;4.03;;;2.00;;
40907;SDS011;51055;59.436;24.778;2022-11-15T02:53:33;2.28;;;1.23;;
40907;SDS011;51055;59.436;24.778;2022-11-15T02:56:01;5.40;;;1.98;;
40907;SDS011;51055;59.436;24.778;2022-11-15T02:58:38;3.97;;;1.80;;
40907;SDS011;51055;59.436;24.778;2022-11-15T03:04:22;3.10;;;1.40;;
40907;SDS011;51055;59.436;24.778;2022-11-15T03:07:07;3.15;;;1.48;;
40907;SDS011;51055;59.436;24.778;2022-11-15T03:09:56;2.85;;;1.60;;
40907;SDS011;51055;59.436;24.778;2022-11-15T03:12:40;3.47;;;1.70;;
40907;SDS011;51055;59.436;24.778;2022-11-15T03:15:18;3.70;;;1.70;;
40907;SDS011;51055;59.436;24.778;2022-11-15T03:17:56;2.53;;;1.35;;
40907;SDS011;51055;59.436;24.778;2022-11-15T03:20:24;3.08;;;1.50;;
40907;SDS011;51055;59.436;24.778;2022-11-15T03:22:55;2.75;;;1.20;;
40907;SDS011;51055;59.436;24.778;2022-11-15T03:25:28;2.47;;;1.20;;
40907;SDS011;51055;59.436;24.778;2022-11-15T03:27:58;2.10;;;1.10;;
40907;SDS011;51055;59.436;24.778;2022-11-15T03:30:32;3.03;;;1.00;;
40907;SDS011;51055;59.436;24.778;2022-11-15T03:33:04;3.67;;;0.93;;
40907;SDS011;51055;59.436;24.778;2022-11-15T03:35:35;1.20;;;0.70;;
40907;SDS011;51055;59.436;24.778;2022-11-15T03:38:11;1.92;;;0.98;;
40907;SDS011;51055;59.436;24.778;2022-11-15T03:46:12;2.70;;;0.80;;
40907;SDS011;51055;59.436;24.778;2022-11-15T03:48:44;2.15;;;0.80;;
40907;SDS011;51055;59.436;24.778;2022-11-15T03:51:16;2.20;;;0.85;;
40907;SDS011;51055;59.436;24.778;2022-11-15T03:53:44;1.83;;;1.00;;
40907;SDS011;51055;59.436;24.778;2022-11-15T03:56:12;1.77;;;0.80;;
40907;SDS011;51055;59.436;24.778;2022-11-15T03:58:40;1.13;;;0.60;;
40907;SDS011;51055;59.436;24.778;2022-11-15T04:01:08;1.40;;;0.70;;
40907;SDS011;51055;59.436;24.778;2022-11-15T04:03:36;1.23;;;0.50;;
40907;SDS011;51055;59.436;24.778;2022-11-15T04:06:03;0.60;;;0.60;;
40907;SDS011;51055;59.436;24.778;2022-11-15T04:08:31;0.73;;;0.52;;
40907;SDS011;51055;59.436;24.778;2022-11-15T04:10:58;1.90;;;0.80;;
40907;SDS011;51055;59.436;24.778;2022-11-15T04:13:28;1.73;;;0.70;;
40907;SDS011;51055;59.436;24.778;2022-11-15T04:15:56;1.35;;;0.70;;
40907;SDS011;51055;59.436;24.778;2022-11-15T04:18:24;1.08;;;0.73;;
40907;SDS011;51055;59.436;24.778;2022-11-15T04:20:52;1.33;;;0.50;;
40907;SDS011;51055;59.436;24.778;2022-11-15T04:23:38;1.60;;;1.00;;
40907;SDS011;51055;59.436;24.778;2022-11-15T04:26:24;0.57;;;0.52;;
40907;SDS011;51055;59.436;24.778;2022-11-15T04:28:53;1.85;;;0.70;;
40907;SDS011;51055;59.436;24.778;2022-11-15T04:31:39;1.65;;;0.80;;
40907;SDS011;51055;59.436;24.778;2022-11-15T04:34:06;5.18;;;1.50;;
40907;SDS011;51055;59.436;24.778;2022-11-15T04:36:34;3.88;;;1.48;;
40907;SDS011;51055;59.436;24.778;2022-11-15T04:39:20;1.70;;;0.90;;
40907;SDS011;51055;59.436;24.778;2022-11-15T04:41:48;1.38;;;1.13;;
40907;SDS011;51055;59.436;24.778;2022-11-15T04:44:15;2.20;;;0.70;;
40907;SDS011;51055;59.436;24.778;2022-11-15T04:46:44;1.52;;;0.80;;
40907;SDS011;51055;59.436;24.778;2022-11-15T04:49:11;0.98;;;0.80;;
40907;SDS011;51055;59.436;24.778;2022-11-15T04:51:39;1.20;;;0.70;;
40907;SDS011;51055;59.436;24.778;2022-11-15T04:54:07;0.50;;;0.50;;
40907;SDS011;51055;59.436;24.778;2022-11-15T04:56:35;1.67;;;0.70;;
40907;SDS011;51055;59.436;24.778;2022-11-15T04:59:02;2.45;;;0.70;;
40907;SDS011;51055;59.436;24.778;2022-11-15T05:01:30;1.75;;;0.75;;
40907;SDS011;51055;59.436;24.778;2022-11-15T05:03:57;1.23;;;0.80;;
40907;SDS011;51055;59.436;24.778;2022-11-15T05:06:44;2.05;;;0.90;;
40907;SDS011;51055;59.436;24.778;2022-11-15T05:09:12;1.17;;;0.75;;
40907;SDS011;51055;59.436;24.778;2022-11-15T05:11:43;3.80;;;1.45;;
40907;SDS011;51055;59.436;24.778;2022-11-15T05:14:11;4.28;;;1.30;;
40907;SDS011;51055;59.436;24.778;2022-11-15T05:16:39;1.63;;;0.90;;
40907;SDS011;51055;59.436;24.778;2022-11-15T05:19:06;4.30;;;1.60;;
40907;SDS011;51055;59.436;24.778;2022-11-15T05:21:34;2.80;;;1.45;;
40907;SDS011;51055;59.436;24.778;2022-11-15T05:24:02;3.28;;;1.20;;
40907;SDS011;51055;59.436;24.778;2022-11-15T05:26:30;1.88;;;0.90;;
40907;SDS011;51055;59.436;24.778;2022-11-15T05:28:58;1.73;;;0.77;;
40907;SDS011;51055;59.436;24.778;2022-11-15T05:31:26;2.65;;;1.35;;
40907;SDS011;51055;59.436;24.778;2022-11-15T05:33:55;2.67;;;1.10;;
40907;SDS011;51055;59.436;24.778;2022-11-15T05:38:57;3.85;;;1.00;;
40907;SDS011;51055;59.436;24.778;2022-11-15T05:44:39;3.78;;;1.40;;
40907;SDS011;51055;59.436;24.778;2022-11-15T05:47:11;2.55;;;1.20;;
40907;SDS011;51055;59.436;24.778;2022-11-15T05:49:43;4.50;;;1.20;;
40907;SDS011;51055;59.436;24.778;2022-11-15T05:54:42;4.18;;;1.20;;
40907;SDS011;51055;59.436;24.778;2022-11-15T05:57:10;3.90;;;1.23;;
40907;SDS011;51055;59.436;24.778;2022-11-15T06:02:08;2.20;;;0.80;;
40907;SDS011;51055;59.436;24.778;2022-11-15T06:04:36;1.48;;;0.63;;
40907;SDS011;51055;59.436;24.778;2022-11-15T06:07:03;2.05;;;0.80;;
40907;SDS011;51055;59.436;24.778;2022-11-15T06:09:31;2.40;;;0.80;;
40907;SDS011;51055;59.436;24.778;2022-11-15T06:11:59;1.58;;;0.77;;
40907;SDS011;51055;59.436;24.778;2022-11-15T06:14:27;1.58;;;0.57;;
40907;SDS011;51055;59.436;24.778;2022-11-15T06:16:54;4.43;;;1.00;;
40907;SDS011;51055;59.436;24.778;2022-11-15T06:19:22;1.10;;;0.60;;
40907;SDS011;51055;59.436;24.778;2022-11-15T06:21:50;2.08;;;0.75;;
40907;SDS011;51055;59.436;24.778;2022-11-15T06:24:18;1.58;;;0.70;;
40907;SDS011;51055;59.436;24.778;2022-11-15T06:26:45;1.55;;;0.63;;
40907;SDS011;51055;59.436;24.778;2022-11-15T06:29:13;2.83;;;0.60;;
40907;SDS011;51055;59.436;24.778;2022-11-15T06:31:40;0.63;;;0.50;;
40907;SDS011;51055;59.436;24.778;2022-11-15T06:34:08;0.52;;;0.50;;
40907;SDS011;51055;59.436;24.778;2022-11-15T06:36:36;0.50;;;0.50;;
40907;SDS011;51055;59.436;24.778;2022-11-15T06:39:04;3.08;;;0.50;;
40907;SDS011;51055;59.436;24.778;2022-11-15T06:41:35;0.60;;;0.40;;
40907;SDS011;51055;59.436;24.778;2022-11-15T06:45:22;1.17;;;0.50;;
40907;SDS011;51055;59.436;24.778;2022-11-15T06:47:50;2.03;;;0.60;;
40907;SDS011;51055;59.436;24.778;2022-11-15T06:50:18;0.70;;;0.47;;
40907;SDS011;51055;59.436;24.778;2022-11-15T06:52:50;0.52;;;0.40;;
40907;SDS011;51055;59.436;24.778;2022-11-15T06:55:39;3.70;;;1.13;;
40907;SDS011;51055;59.436;24.778;2022-11-15T06:58:12;0.98;;;0.60;;
40907;SDS011;51055;59.436;24.778;2022-11-15T07:00:41;1.60;;;0.40;;
40907;SDS011;51055;59.436;24.778;2022-11-15T07:03:09;1.65;;;0.40;;
40907;SDS011;51055;59.436;24.778;2022-11-15T07:05:37;0.88;;;0.50;;
40907;SDS011;51055;59.436;24.778;2022-11-15T07:08:05;0.90;;;0.40;;
40907;SDS011;51055;59.436;24.778;2022-11-15T07:10:32;1.15;;;0.50;;
40907;SDS011;51055;59.436;24.778;2022-11-15T07:13:00;4.68;;;0.85;;
40907;SDS011;51055;59.436;24.778;2022-11-15T07:15:28;1.27;;;0.50;;
40907;SDS011;51055;59.436;24.778;2022-11-15T07:17:55;2.78;;;0.60;;
40907;SDS011;51055;59.436;24.778;2022-11-15T07:20:23;2.50;;;0.85;;
40907;SDS011;51055;59.436;24.778;2022-11-15T07:22:51;1.67;;;0.80;;
40907;SDS011;51055;59.436;24.778;2022-11-15T07:25:27;2.17;;;1.00;;
40907;SDS011;51055;59.436;24.778;2022-11-15T07:27:55;0.57;;;0.35;;
40907;SDS011;51055;59.436;24.778;2022-11-15T07:33:00;0.30;;;0.30;;
40907;SDS011;51055;59.436;24.778;2022-11-15T07:35:28;1.02;;;0.50;;
40907;SDS011;51055;59.436;24.778;2022-11-15T07:37:58;0.95;;;0.70;;
40907;SDS011;51055;59.436;24.778;2022-11-15T07:40:30;2.72;;;0.60;;
40907;SDS011;51055;59.436;24.778;2022-11-15T07:45:30;0.80;;;0.70;;
40907;SDS011;51055;59.436;24.778;2022-11-15T07:47:58;1.43;;;0.57;;
40907;SDS011;51055;59.436;24.778;2022-11-15T07:50:27;1.85;;;0.40;;
40907;SDS011;51055;59.436;24.778;2022-11-15T07:52:59;0.55;;;0.50;;
40907;SDS011;51055;59.436;24.778;2022-11-15T07:55:27;0.75;;;0.50;;
40907;SDS011;51055;59.436;24.778;2022-11-15T07:58:00;2.88;;;0.68;;
40907;SDS011;51055;59.436;24.778;2022-11-15T08:00:46;0.75;;;0.50;;
40907;SDS011;51055;59.436;24.778;2022-11-15T08:03:15;1.35;;;0.90;;
40907;SDS011;51055;59.436;24.778;2022-11-15T08:05:49;1.48;;;0.60;;
40907;SDS011;51055;59.436;24.778;2022-11-15T08:08:19;1.30;;;0.47;;
40907;SDS011;51055;59.436;24.778;2022-11-15T08:10:47;1.20;;;0.50;;
40907;SDS011;51055;59.436;24.778;2022-11-15T08:13:14;1.95;;;0.52;;
40907;SDS011;51055;59.436;24.778;2022-11-15T08:15:42;3.97;;;0.82;;
40907;SDS011;51055;59.436;24.778;2022-11-15T08:18:11;2.50;;;0.60;;
40907;SDS011;51055;59.436;24.778;2022-11-15T08:20:42;4.13;;;1.00;;
40907;SDS011;51055;59.436;24.778;2022-11-15T08:23:11;2.80;;;0.60;;
40907;SDS011;51055;59.436;24.778;2022-11-15T08:25:40;4.10;;;0.68;;
40907;SDS011;51055;59.436;24.778;2022-11-15T08:28:08;1.25;;;0.40;;
40907;SDS011;51055;59.436;24.778;2022-11-15T08:30:38;2.67;;;0.50;;
40907;SDS011;51055;59.436;24.778;2022-11-15T08:33:10;2.22;;;0.85;;
40907;SDS011;51055;59.436;24.778;2022-11-15T08:35:42;5.97;;;1.50;;
40907;SDS011;51055;59.436;24.778;2022-11-15T08:38:11;1.80;;;0.80;;
40907;SDS011;51055;59.436;24.778;2022-11-15T08:40:41;0.98;;;0.70;;
40907;SDS011;51055;59.436;24.778;2022-11-15T08:43:09;3.22;;;0.70;;
40907;SDS011;51055;59.436;24.778;2022-11-15T08:45:36;3.10;;;1.15;;
40907;SDS011;51055;59.436;24.778;2022-11-15T08:48:04;1.83;;;0.60;;
40907;SDS011;51055;59.436;24.778;2022-11-15T08:50:33;2.00;;;0.63;;
40907;SDS011;51055;59.436;24.778;2022-11-15T08:53:05;2.23;;;0.70;;
40907;SDS011;51055;59.436;24.778;2022-11-15T08:55:37;3.55;;;1.00;;
40907;SDS011;51055;59.436;24.778;2022-11-15T08:58:05;3.72;;;1.40;;
40907;SDS011;51055;59.436;24.778;2022-11-15T09:00:34;4.93;;;1.10;;
40907;SDS011;51055;59.436;24.778;2022-11-15T09:03:05;3.22;;;0.90;;
40907;SDS011;51055;59.436;24.778;2022-11-15T09:05:35;2.30;;;0.60;;
40907;SDS011;51055;59.436;24.778;2022-11-15T09:08:04;5.15;;;0.70;;
40907;SDS011;51055;59.436;24.778;2022-11-15T09:10:52;2.78;;;0.80;;
40907;SDS011;51055;59.436;24.778;2022-11-15T09:13:19;0.75;;;0.50;;
40907;SDS011;51055;59.436;24.778;2022-11-15T09:15:47;2.92;;;0.70;;
40907;SDS011;51055;59.436;24.778;2022-11-15T09:18:14;3.17;;;0.70;;
40907;SDS011;51055;59.436;24.778;2022-11-15T09:20:42;2.17;;;0.60;;
40907;SDS011;51055;59.436;24.778;2022-11-15T09:23:10;6.47;;;1.02;;
40907;SDS011;51055;59.436;24.778;2022-11-15T09:25:38;2.40;;;0.70;;
40907;SDS011;51055;59.436;24.778;2022-11-15T09:28:06;3.03;;;0.70;;
40907;SDS011;51055;59.436;24.778;2022-11-15T09:30:35;2.17;;;0.75;;
40907;SDS011;51055;59.436;24.778;2022-11-15T09:33:06;1.75;;;0.65;;
40907;SDS011;51055;59.436;24.778;2022-11-15T09:35:38;2.42;;;0.80;;
40907;SDS011;51055;59.436;24.778;2022-11-15T09:38:06;2.70;;;0.60;;
40907;SDS011;51055;59.436;24.778;2022-11-15T09:40:35;5.88;;;1.05;;
40907;SDS011;51055;59.436;24.778;2022-11-15T09:43:10;1.02;;;0.60;;
40907;SDS011;51055;59.436;24.778;2022-11-15T09:51:27;3.20;;;0.90;;
40907;SDS011;51055;59.436;24.778;2022-11-15T09:56:50;2.63;;;0.82;;
40907;SDS011;51055;59.436;24.778;2022-11-15T09:59:26;2.17;;;0.70;;
40907;SDS011;51055;59.436;24.778;2022-11-15T10:04:25;1.75;;;0.70;;
40907;SDS011;51055;59.436;24.778;2022-11-15T10:07:19;4.72;;;0.75;;
40907;SDS011;51055;59.436;24.778;2022-11-15T10:09:53;2.40;;;0.70;;
40907;SDS011;51055;59.436;24.778;2022-11-15T10:12:24;2.72;;;0.90;;
40907;SDS011;51055;59.436;24.778;2022-11-15T10:14:58;2.80;;;0.80;;
40907;SDS011;51055;59.436;24.778;2022-11-15T10:20:48;2.22;;;0.57;;
40907;SDS011;51055;59.436;24.778;2022-11-15T10:23:18;2.35;;;0.80;;
40907;SDS011;51055;59.436;24.778;2022-11-15T10:25:52;3.00;;;0.80;;
40907;SDS011;51055;59.436;24.778;2022-11-15T10:30:57;2.60;;;0.70;;
40907;SDS011;51055;59.436;24.778;2022-11-15T10:41:18;3.38;;;1.00;;
40907;SDS011;51055;59.436;24.778;2022-11-15T10:46:34;3.10;;;1.02;;
40907;SDS011;51055;59.436;24.778;2022-11-15T10:51:43;2.40;;;0.93;;
40907;SDS011;51055;59.436;24.778;2022-11-15T10:54:23;2.92;;;0.90;;
40907;SDS011;51055;59.436;24.778;2022-11-15T10:56:55;3.15;;;0.80;;
40907;SDS011;51055;59.436;24.778;2022-11-15T10:59:26;2.75;;;0.90;;
40907;SDS011;51055;59.436;24.778;2022-11-15T11:04:51;1.65;;;0.70;;
40907;SDS011;51055;59.436;24.778;2022-11-15T11:07:20;1.43;;;0.60;;
40907;SDS011;51055;59.436;24.778;2022-11-15T11:12:31;2.33;;;0.73;;
40907;SDS011;51055;59.436;24.778;2022-11-15T11:15:01;2.47;;;0.80;;
40907;SDS011;51055;59.436;24.778;2022-11-15T11:20:38;3.63;;;0.98;;
40907;SDS011;51055;59.436;24.778;2022-11-15T11:26:01;3.95;;;1.30;;
40907;SDS011;51055;59.436;24.778;2022-11-15T11:31:43;1.92;;;0.80;;
40907;SDS011;51055;59.436;24.778;2022-11-15T11:42:55;2.70;;;0.90;;
40907;SDS011;51055;59.436;24.778;2022-11-15T11:45:39;2.60;;;1.00;;
40907;SDS011;51055;59.436;24.778;2022-11-15T11:51:11;1.90;;;0.60;;
40907;SDS011;51055;59.436;24.778;2022-11-15T11:54:00;2.25;;;1.00;;
40907;SDS011;51055;59.436;24.778;2022-11-15T11:56:33;1.30;;;0.75;;
40907;SDS011;51055;59.436;24.778;2022-11-15T12:02:25;1.63;;;0.90;;
40907;SDS011;51055;59.436;24.778;2022-11-15T12:05:01;2.75;;;1.00;;
40907;SDS011;51055;59.436;24.778;2022-11-15T12:07:37;3.60;;;1.00;;
40907;SDS011;51055;59.436;24.778;2022-11-15T12:10:42;2.63;;;0.85;;
40907;SDS011;51055;59.436;24.778;2022-11-15T12:13:13;4.25;;;1.13;;
40907;SDS011;51055;59.436;24.778;2022-11-15T12:15:47;2.35;;;0.90;;
40907;SDS011;51055;59.436;24.778;2022-11-15T12:18:23;1.65;;;0.90;;
40907;SDS011;51055;59.436;24.778;2022-11-15T12:20:55;4.68;;;1.10;;
40907;SDS011;51055;59.436;24.778;2022-11-15T12:23:48;2.88;;;1.00;;
40907;SDS011;51055;59.436;24.778;2022-11-15T12:26:23;2.15;;;0.90;;
40907;SDS011;51055;59.436;24.778;2022-11-15T12:29:00;3.55;;;1.00;;
40907;SDS011;51055;59.436;24.778;2022-11-15T12:31:39;2.13;;;0.93;;
40907;SDS011;51055;59.436;24.778;2022-11-15T12:36:48;4.97;;;1.60;;
40907;SDS011;51055;59.436;24.778;2022-11-15T12:39:17;2.22;;;0.93;;
40907;SDS011;51055;59.436;24.778;2022-11-15T12:47:00;3.22;;;1.20;;
40907;SDS011;51055;59.436;24.778;2022-11-15T13:02:32;3.45;;;1.10;;
40907;SDS011;51055;59.436;24.778;2022-11-15T13:17:40;2.92;;;0.90;;
40907;SDS011;51055;59.436;24.778;2022-11-15T13:22:42;4.30;;;1.10;;
40907;SDS011;51055;59.436;24.778;2022-11-15T13:33:36;4.43;;;1.27;;
40907;SDS011;51055;59.436;24.778;2022-11-15T13:36:06;3.63;;;1.20;;
40907;SDS011;51055;59.436;24.778;2022-11-15T13:39:04;2.88;;;1.00;;
40907;SDS011;51055;59.436;24.778;2022-11-15T13:41:49;2.08;;;0.90;;
40907;SDS011;51055;59.436;24.778;2022-11-15T13:44:19;2.75;;;1.00;;
40907;SDS011;51055;59.436;24.778;2022-11-15T13:46:50;2.22;;;1.05;;
40907;SDS011;51055;59.436;24.778;2022-11-15T13:49:30;1.00;;;0.80;;
40907;SDS011;51055;59.436;24.778;2022-11-15T13:52:00;4.07;;;1.00;;
40907;SDS011;51055;59.436;24.778;2022-11-15T14:02:27;1.35;;;0.70;;
40907;SDS011;51055;59.436;24.778;2022-11-15T14:04:59;3.28;;;0.93;;
40907;SDS011;51055;59.436;24.778;2022-11-15T14:07:33;2.58;;;0.77;;
40907;SDS011;51055;59.436;24.778;2022-11-15T14:10:45;4.07;;;1.77;;
40907;SDS011;51055;59.436;24.778;2022-11-15T14:13:10;5.00;;;1.60;;
40907;SDS011;51055;59.436;24.778;2022-11-15T14:15:54;1.92;;;1.10;;
40907;SDS011;51055;59.436;24.778;2022-11-15T14:18:40;1.58;;;0.80;;
40907;SDS011;51055;59.436;24.778;2022-11-15T14:21:11;3.08;;;1.25;;
40907;SDS011;51055;59.436;24.778;2022-11-15T14:23:38;2.25;;;1.00;;
40907;SDS011;51055;59.436;24.778;2022-11-15T14:26:10;2.25;;;1.20;;
40907;SDS011;51055;59.436;24.778;2022-11-15T14:28:53;2.63;;;0.90;;
40907;SDS011;51055;59.436;24.778;2022-11-15T14:31:21;1.20;;;0.73;;
40907;SDS011;51055;59.436;24.778;2022-11-15T14:33:49;2.00;;;0.87;;
40907;SDS011;51055;59.436;24.778;2022-11-15T14:36:17;3.10;;;1.00;;
40907;SDS011;51055;59.436;24.778;2022-11-15T14:38:47;3.17;;;1.00;;
40907;SDS011;51055;59.436;24.778;2022-11-15T14:43:46;4.05;;;0.90;;
40907;SDS011;51055;59.436;24.778;2022-11-15T14:46:13;2.30;;;1.00;;
40907;SDS011;51055;59.436;24.778;2022-11-15T14:48:41;3.60;;;0.80;;
40907;SDS011;51055;59.436;24.778;2022-11-15T14:51:13;2.55;;;0.70;;
40907;SDS011;51055;59.436;24.778;2022-11-15T14:53:42;1.95;;;0.80;;
40907;SDS011;51055;59.436;24.778;2022-11-15T14:56:11;2.78;;;0.90;;
40907;SDS011;51055;59.436;24.778;2022-11-15T14:58:40;1.15;;;0.70;;
40907;SDS011;51055;59.436;24.778;2022-11-15T15:01:19;2.08;;;0.88;;
40907;SDS011;51055;59.436;24.778;2022-11-15T15:03:49;3.13;;;1.00;;
40907;SDS011;51055;59.436;24.778;2022-11-15T15:06:18;3.03;;;1.10;;
40907;SDS011;51055;59.436;24.778;2022-11-15T15:08:46;2.42;;;1.20;;
40907;SDS011;51055;59.436;24.778;2022-11-15T15:11:49;1.67;;;0.90;;
40907;SDS011;51055;59.436;24.778;2022-11-15T15:14:14;2.15;;;1.40;;
40907;SDS011;51055;59.436;24.778;2022-11-15T15:16:42;3.53;;;1.40;;
40907;SDS011;51055;59.436;24.778;2022-11-15T15:19:09;3.10;;;1.05;;
40907;SDS011;51055;59.436;24.778;2022-11-15T15:21:37;2.78;;;1.00;;
40907;SDS011;51055;59.436;24.778;2022-11-15T15:24:05;1.00;;;0.57;;
40907;SDS011;51055;59.436;24.778;2022-11-15T15:26:33;2.03;;;0.90;;
40907;SDS011;51055;59.436;24.778;2022-11-15T15:29:03;2.25;;;0.88;;
40907;SDS011;51055;59.436;24.778;2022-11-15T15:31:31;1.33;;;0.77;;
40907;SDS011;51055;59.436;24.778;2022-11-15T15:34:00;2.90;;;0.88;;
40907;SDS011;51055;59.436;24.778;2022-11-15T15:36:28;1.75;;;0.80;;
40907;SDS011;51055;59.436;24.778;2022-11-15T15:38:56;3.17;;;0.90;;
40907;SDS011;51055;59.436;24.778;2022-11-15T15:41:23;4.43;;;0.90;;
40907;SDS011;51055;59.436;24.778;2022-11-15T15:43:51;1.33;;;0.70;;
40907;SDS011;51055;59.436;24.778;2022-11-15T15:46:19;3.17;;;0.80;;
40907;SDS011;51055;59.436;24.778;2022-11-15T15:48:47;2.20;;;0.82;;
40907;SDS011;51055;59.436;24.778;2022-11-15T15:51:15;1.98;;;0.77;;
40907;SDS011;51055;59.436;24.778;2022-11-15T15:53:47;2.45;;;0.82;;
40907;SDS011;51055;59.436;24.778;2022-11-15T15:56:15;1.00;;;0.60;;
40907;SDS011;51055;59.436;24.778;2022-11-15T15:58:43;2.22;;;0.90;;
40907;SDS011;51055;59.436;24.778;2022-11-15T16:01:10;3.13;;;1.08;;
40907;SDS011;51055;59.436;24.778;2022-11-15T16:03:38;4.38;;;0.93;;
40907;SDS011;51055;59.436;24.778;2022-11-15T16:06:22;3.05;;;1.00;;
40907;SDS011;51055;59.436;24.778;2022-11-15T16:09:03;3.78;;;0.93;;
40907;SDS011;51055;59.436;24.778;2022-11-15T16:11:43;2.67;;;0.93;;
40907;SDS011;51055;59.436;24.778;2022-11-15T16:14:12;4.72;;;1.02;;
40907;SDS011;51055;59.436;24.778;2022-11-15T16:16:40;2.67;;;1.17;;
40907;SDS011;51055;59.436;24.778;2022-11-15T16:19:08;2.75;;;1.05;;
40907;SDS011;51055;59.436;24.778;2022-11-15T16:21:38;4.88;;;1.20;;
40907;SDS011;51055;59.436;24.778;2022-11-15T16:24:05;3.15;;;1.17;;
40907;SDS011;51055;59.436;24.778;2022-11-15T16:26:32;2.42;;;1.00;;
40907;SDS011;51055;59.436;24.778;2022-11-15T16:29:03;1.75;;;0.90;;
40907;SDS011;51055;59.436;24.778;2022-11-15T16:31:30;1.30;;;0.70;;
40907;SDS011;51055;59.436;24.778;2022-11-15T16:33:58;2.33;;;0.80;;
40907;SDS011;51055;59.436;24.778;2022-11-15T16:36:26;2.53;;;1.10;;
40907;SDS011;51055;59.436;24.778;2022-11-15T16:38:58;3.45;;;1.02;;
40907;SDS011;51055;59.436;24.778;2022-11-15T16:41:27;2.63;;;1.15;;
40907;SDS011;51055;59.436;24.778;2022-11-15T16:43:54;4.50;;;1.00;;
40907;SDS011;51055;59.436;24.778;2022-11-15T16:46:26;2.00;;;1.10;;
40907;SDS011;51055;59.436;24.778;2022-11-15T16:48:54;3.20;;;1.08;;
40907;SDS011;51055;59.436;24.778;2022-11-15T16:51:23;5.15;;;1.33;;
40907;SDS011;51055;59.436;24.778;2022-11-15T16:53:51;2.60;;;1.08;;
40907;SDS011;51055;59.436;24.778;2022-11-15T16:56:26;3.42;;;1.00;;
40907;SDS011;51055;59.436;24.778;2022-11-15T16:58:56;3.78;;;1.70;;
40907;SDS011;51055;59.436;24.778;2022-11-15T17:01:32;3.22;;;1.02;;
40907;SDS011;51055;59.436;24.778;2022-11-15T17:04:02;2.90;;;1.00;;
40907;SDS011;51055;59.436;24.778;2022-11-15T17:06:39;3.65;;;1.38;;
40907;SDS011;51055;59.436;24.778;2022-11-15T17:09:12;3.72;;;1.40;;
40907;SDS011;51055;59.436;24.778;2022-11-15T17:11:45;3.90;;;1.35;;
40907;SDS011;51055;59.436;24.778;2022-11-15T17:14:13;2.33;;;0.95;;
40907;SDS011;51055;59.436;24.778;2022-11-15T17:16:43;3.03;;;1.10;;
40907;SDS011;51055;59.436;24.778;2022-11-15T17:19:15;2.30;;;0.90;;
40907;SDS011;51055;59.436;24.778;2022-11-15T17:21:44;2.30;;;1.02;;
40907;SDS011;51055;59.436;24.778;2022-11-15T17:24:18;4.03;;;1.40;;
40907;SDS011;51055;59.436;24.778;2022-11-15T17:26:48;3.33;;;1.30;;
40907;SDS011;51055;59.436;24.778;2022-11-15T17:29:16;4.28;;;1.40;;